Map

Track Data

SID SEASON NUMBER BASIN SUBBASIN NAME ISO_TIME NATURE LAT LON WMO_WIND WMO_PRES WMO_AGENCY TRACK_TYPE DIST2LAND LANDFALL IFLAG USA_AGENCY USA_ATCF_ID USA_LAT USA_LON USA_RECORD USA_STATUS USA_WIND USA_PRES USA_SSHS USA_R34_NE USA_R34_SE USA_R34_SW USA_R34_NW USA_R50_NE USA_R50_SE USA_R50_SW USA_R50_NW USA_R64_NE USA_R64_SE USA_R64_SW USA_R64_NW USA_POCI USA_ROCI USA_RMW USA_EYE TOKYO_LAT TOKYO_LON TOKYO_GRADE TOKYO_WIND TOKYO_PRES TOKYO_R50_DIR TOKYO_R50_LONG TOKYO_R50_SHORT TOKYO_R30_DIR TOKYO_R30_LONG TOKYO_R30_SHORT TOKYO_LAND CMA_LAT CMA_LON CMA_CAT CMA_WIND CMA_PRES HKO_LAT HKO_LON HKO_CAT HKO_WIND HKO_PRES NEWDELHI_LAT NEWDELHI_LON NEWDELHI_GRADE NEWDELHI_WIND NEWDELHI_PRES NEWDELHI_CI NEWDELHI_DP NEWDELHI_POCI REUNION_LAT REUNION_LON REUNION_TYPE REUNION_WIND REUNION_PRES REUNION_TNUM REUNION_CI REUNION_RMW REUNION_R34_NE REUNION_R34_SE REUNION_R34_SW REUNION_R34_NW REUNION_R50_NE REUNION_R50_SE REUNION_R50_SW REUNION_R50_NW REUNION_R64_NE REUNION_R64_SE REUNION_R64_SW REUNION_R64_NW BOM_LAT BOM_LON BOM_TYPE BOM_WIND BOM_PRES BOM_TNUM BOM_CI BOM_RMW BOM_R34_NE BOM_R34_SE BOM_R34_SW BOM_R34_NW BOM_R50_NE BOM_R50_SE BOM_R50_SW BOM_R50_NW BOM_R64_NE BOM_R64_SE BOM_R64_SW BOM_R64_NW BOM_ROCI BOM_POCI BOM_EYE BOM_POS_METHOD BOM_PRES_METHOD NADI_LAT NADI_LON NADI_CAT NADI_WIND NADI_PRES WELLINGTON_LAT WELLINGTON_LON WELLINGTON_WIND WELLINGTON_PRES DS824_LAT DS824_LON DS824_STAGE DS824_WIND DS824_PRES TD9636_LAT TD9636_LON TD9636_STAGE TD9636_WIND TD9636_PRES TD9635_LAT TD9635_LON TD9635_WIND TD9635_PRES TD9635_ROCI NEUMANN_LAT NEUMANN_LON NEUMANN_CLASS NEUMANN_WIND NEUMANN_PRES MLC_LAT MLC_LON MLC_CLASS MLC_WIND MLC_PRES USA_GUST BOM_GUST BOM_GUST_PER REUNION_GUST REUNION_GUST_PER USA_SEAHGT USA_SEARAD_NE USA_SEARAD_SE USA_SEARAD_SW USA_SEARAD_NW STORM_SPEED STORM_DIR
1926211N16314 1926 28 NA NA NOT_NAMED 1926-07-29 12:00:00 TS 16.0000 -46.0000 25 hurdat_atl main 1408 1380 O_____________ hurdat_atl AL021926 16.0000 -46.0000 TD 25 -1 10 276
1926211N16314 1926 28 NA NA NOT_NAMED 1926-07-29 15:00:00 TS 16.0502 -46.5000 main 1390 1365 P_____________ AL021926 16.0502 -46.5000 TD 25 -1 10 276
1926211N16314 1926 28 NA NA NOT_NAMED 1926-07-29 18:00:00 TS 16.1000 -47.0000 25 hurdat_atl main 1365 1340 O_____________ hurdat_atl AL021926 16.1000 -47.0000 TD 25 -1 10 276
1926211N16314 1926 28 NA NA NOT_NAMED 1926-07-29 21:00:00 TS 16.1499 -47.5000 main 1340 1328 P_____________ AL021926 16.1499 -47.5000 TD 27 -1 10 276
1926211N16314 1926 28 NA NA NOT_NAMED 1926-07-30 00:00:00 TS 16.2000 -48.0000 30 hurdat_atl main 1328 1307 O_____________ hurdat_atl AL021926 16.2000 -48.0000 TD 30 -1 10 276
1926211N16314 1926 28 NA NA NOT_NAMED 1926-07-30 03:00:00 TS 16.2424 -48.5001 main 1307 1295 P_____________ AL021926 16.2424 -48.5001 TD 30 -1 10 276
1926211N16314 1926 28 NA NA NOT_NAMED 1926-07-30 06:00:00 TS 16.3000 -49.0000 30 hurdat_atl main 1295 1281 O_____________ hurdat_atl AL021926 16.3000 -49.0000 TD 30 -1 10 279
1926211N16314 1926 28 NA NA NOT_NAMED 1926-07-30 09:00:00 TS 16.3924 -49.5075 main 1282 1269 P_____________ AL021926 16.3924 -49.5075 TD 30 -1 10 282
1926211N16314 1926 28 NA NA NOT_NAMED 1926-07-30 12:00:00 TS 16.5000 -50.0000 30 hurdat_atl main 1272 1264 O_____________ hurdat_atl AL021926 16.5000 -50.0000 TD 30 -1 9 283
1926211N16314 1926 28 NA NA NOT_NAMED 1926-07-30 15:00:00 TS 16.5999 -50.4576 main 1264 1257 P_____________ AL021926 16.5999 -50.4576 TD 30 -1 9 283
1926211N16314 1926 28 NA NA NOT_NAMED 1926-07-30 18:00:00 TS 16.7000 -50.9000 30 hurdat_atl main 1261 1250 O_____________ hurdat_atl AL021926 16.7000 -50.9000 TD 30 -1 9 283
1926211N16314 1926 28 NA NA NOT_NAMED 1926-07-30 21:00:00 TS 16.7924 -51.3501 main 1241 1211 P_____________ AL021926 16.7924 -51.3501 TD 32 -1 9 283
1926211N16314 1926 28 NA NA NOT_NAMED 1926-07-31 00:00:00 TS 16.9000 -51.8000 35 hurdat_atl main 1211 1183 O_____________ hurdat_atl AL021926 16.9000 -51.8000 TS 35 0 9 286
1926211N16314 1926 28 NA NA NOT_NAMED 1926-07-31 03:00:00 TS 17.0424 -52.2575 main 1174 1153 P_____________ AL021926 17.0424 -52.2575 TS 35 0 9 289
1926211N16314 1926 28 NA NA NOT_NAMED 1926-07-31 06:00:00 TS 17.2000 -52.7000 35 hurdat_atl main 1153 1127 O_____________ hurdat_atl AL021926 17.2000 -52.7000 TS 35 0 9 289
1926211N16314 1926 28 NA NA NOT_NAMED 1926-07-31 09:00:00 TS 17.3273 -53.1003 main 1127 1110 P_____________ AL021926 17.3273 -53.1003 TS 35 0 8 291
1926211N16314 1926 28 NA NA NOT_NAMED 1926-07-31 12:00:00 TS 17.5000 -53.5000 35 hurdat_atl main 1110 1095 O_____________ hurdat_atl AL021926 17.5000 -53.5000 TS 35 0 9 298
1926211N16314 1926 28 NA NA NOT_NAMED 1926-07-31 15:00:00 TS 17.7550 -53.9426 main 1103 1088 P_____________ AL021926 17.7550 -53.9426 TS 37 0 10 305
1926211N16314 1926 28 NA NA NOT_NAMED 1926-07-31 18:00:00 TS 18.1000 -54.4000 40 hurdat_atl main 1091 1084 O_____________ hurdat_atl AL021926 18.1000 -54.4000 TS 40 0 12 312
1926211N16314 1926 28 NA NA NOT_NAMED 1926-07-31 21:00:00 TS 18.5199 -54.8501 main 1092 1086 P_____________ AL021926 18.5199 -54.8501 TS 42 0 12 317
1926211N16314 1926 28 NA NA NOT_NAMED 1926-08-01 00:00:00 TS 19.0000 -55.3000 45 hurdat_atl main 1086 1047 O_____________ hurdat_atl AL021926 19.0000 -55.3000 TS 45 0 13 319
1926211N16314 1926 28 NA NA NOT_NAMED 1926-08-01 03:00:00 TS 19.4924 -55.7576 main 1037 1001 P_____________ AL021926 19.4924 -55.7576 TS 47 0 13 320
1926211N16314 1926 28 NA NA NOT_NAMED 1926-08-01 06:00:00 TS 20.0000 -56.2000 50 hurdat_atl main 1003 969 O_____________ hurdat_atl AL021926 20.0000 -56.2000 TS 50 0 13 321
1926211N16314 1926 28 NA NA NOT_NAMED 1926-08-01 09:00:00 TS 20.4924 -56.6227 main 972 942 P_____________ AL021926 20.4924 -56.6227 TS 55 0 13 323
1926211N16314 1926 28 NA NA NOT_NAMED 1926-08-01 12:00:00 TS 21.0000 -57.0000 60 hurdat_atl main 945 933 O_____________ hurdat_atl AL021926 21.0000 -57.0000 TS 60 0 12 329
1926211N16314 1926 28 NA NA NOT_NAMED 1926-08-01 15:00:00 TS 21.5499 -57.3153 main 933 926 P_____________ AL021926 21.5499 -57.3153 TS 65 1 12 333
1926211N16314 1926 28 NA NA NOT_NAMED 1926-08-01 18:00:00 TS 22.1000 -57.6000 70 hurdat_atl main 931 923 O_____________ hurdat_atl AL021926 22.1000 -57.6000 HU 70 1 12 333
1926211N16314 1926 28 NA NA NOT_NAMED 1926-08-01 21:00:00 TS 22.6075 -57.9077 main 929 925 P_____________ AL021926 22.6075 -57.9077 HU 75 1 11 331
1926211N16314 1926 28 NA NA NOT_NAMED 1926-08-02 00:00:00 TS 23.1000 -58.2000 80 hurdat_atl main 931 929 O_____________ hurdat_atl AL021926 23.1000 -58.2000 HU 80 1 11 333
1926211N16314 1926 28 NA NA NOT_NAMED 1926-08-02 03:00:00 TS 23.5999 -58.4578 main 938 938 P_____________ AL021926 23.5999 -58.4578 HU 85 2 11 335
1926211N16314 1926 28 NA NA NOT_NAMED 1926-08-02 06:00:00 TS 24.1000 -58.7000 90 hurdat_atl main 957 957 O_____________ hurdat_atl AL021926 24.1000 -58.7000 HU 90 2 11 336
1926211N16314 1926 28 NA NA NOT_NAMED 1926-08-02 09:00:00 TS 24.6300 -58.9500 main 972 972 P_____________ AL021926 24.6300 -58.9500 HU 95 2 11 336
1926211N16314 1926 28 NA NA NOT_NAMED 1926-08-02 12:00:00 TS 25.1000 -59.2000 100 hurdat_atl main 998 998 O_____________ hurdat_atl AL021926 25.1000 -59.2000 HU 100 3 9 331
1926211N16314 1926 28 NA NA NOT_NAMED 1926-08-02 15:00:00 TS 25.4449 -59.4502 main 1003 1003 P_____________ AL021926 25.4449 -59.4502 HU 100 3 8 323
1926211N16314 1926 28 NA NA NOT_NAMED 1926-08-02 18:00:00 TS 25.7000 -59.7000 100 hurdat_atl main 1017 1014 O_____________ hurdat_atl AL021926 25.7000 -59.7000 HU 100 3 7 317
1926211N16314 1926 28 NA NA NOT_NAMED 1926-08-02 21:00:00 TS 25.9300 -59.9576 main 1017 1017 P_____________ AL021926 25.9300 -59.9576 HU 100 3 6 312
1926211N16314 1926 28 NA NA NOT_NAMED 1926-08-03 00:00:00 TS 26.1000 -60.2000 100 hurdat_atl main 1024 1018 O_____________ hurdat_atl AL021926 26.1000 -60.2000 HU 100 3 5 305
1926211N16314 1926 28 NA NA NOT_NAMED 1926-08-03 03:00:00 TS 26.2149 -60.4076 main 1022 1017 P_____________ AL021926 26.2149 -60.4076 HU 100 3 4 299
1926211N16314 1926 28 NA NA NOT_NAMED 1926-08-03 06:00:00 TS 26.3000 -60.6000 100 hurdat_atl main 1021 1016 O_____________ hurdat_atl AL021926 26.3000 -60.6000 HU 100 3 4 298
1926211N16314 1926 28 NA NA NOT_NAMED 1926-08-03 09:00:00 TS 26.4075 -60.8150 main 1021 1016 P_____________ AL021926 26.4075 -60.8150 HU 100 3 4 299
1926211N16314 1926 28 NA NA NOT_NAMED 1926-08-03 12:00:00 TS 26.5000 -61.0000 100 hurdat_atl main 1021 1016 O_____________ hurdat_atl AL021926 26.5000 -61.0000 HU 100 3 3 299
1926211N16314 1926 28 NA NA NOT_NAMED 1926-08-03 15:00:00 TS 26.5575 -61.1226 main 1026 1021 P_____________ AL021926 26.5575 -61.1226 HU 100 3 2 300
1926211N16314 1926 28 NA NA NOT_NAMED 1926-08-03 18:00:00 TS 26.6000 -61.2000 100 hurdat_atl main 1021 1017 O_____________ hurdat_atl AL021926 26.6000 -61.2000 HU 100 3 2 309
1926211N16314 1926 28 NA NA NOT_NAMED 1926-08-03 21:00:00 TS 26.6500 -61.2575 main 1017 1017 P_____________ AL021926 26.6500 -61.2575 HU 100 3 1 320
1926211N16314 1926 28 NA NA NOT_NAMED 1926-08-04 00:00:00 TS 26.7000 -61.3000 100 hurdat_atl main 1027 1027 O_____________ hurdat_atl AL021926 26.7000 -61.3000 HU 100 3 1 321
1926211N16314 1926 28 NA NA NOT_NAMED 1926-08-04 03:00:00 TS 26.7425 -61.3500 main 1022 1022 P_____________ AL021926 26.7425 -61.3500 HU 100 3 1 320
1926211N16314 1926 28 NA NA NOT_NAMED 1926-08-04 06:00:00 TS 26.8000 -61.4000 100 hurdat_atl main 1032 1032 O_____________ hurdat_atl AL021926 26.8000 -61.4000 HU 100 3 2 331
1926211N16314 1926 28 NA NA NOT_NAMED 1926-08-04 09:00:00 TS 26.8850 -61.4351 main 1043 1038 P_____________ AL021926 26.8850 -61.4351 HU 100 3 2 335
1926211N16314 1926 28 NA NA NOT_NAMED 1926-08-04 12:00:00 TS 27.0000 -61.5000 100 hurdat_atl main 1049 1049 O_____________ hurdat_atl AL021926 27.0000 -61.5000 HU 100 3 3 325
1926211N16314 1926 28 NA NA NOT_NAMED 1926-08-04 15:00:00 TS 27.1350 -61.6275 main 1055 1055 P_____________ AL021926 27.1350 -61.6275 HU 100 3 4 318
1926211N16314 1926 28 NA NA NOT_NAMED 1926-08-04 18:00:00 TS 27.3000 -61.8000 100 hurdat_atl main 1068 1068 O_____________ hurdat_atl AL021926 27.3000 -61.8000 HU 100 3 5 318
1926211N16314 1926 28 NA NA NOT_NAMED 1926-08-04 21:00:00 TS 27.4925 -61.9925 main 1081 1081 P_____________ AL021926 27.4925 -61.9925 HU 100 3 5 319
1926211N16314 1926 28 NA NA NOT_NAMED 1926-08-05 00:00:00 TS 27.7000 -62.2000 100 hurdat_atl main 1095 1095 O_____________ hurdat_atl AL021926 27.7000 -62.2000 HU 100 3 5 319
1926211N16314 1926 28 NA NA NOT_NAMED 1926-08-05 03:00:00 TS 27.9000 -62.4001 main 1110 1110 P_____________ AL021926 27.9000 -62.4001 HU 102 3 5 319
1926211N16314 1926 28 NA NA NOT_NAMED 1926-08-05 06:00:00 TS 28.1000 -62.6000 105 hurdat_atl main 1126 1126 O_____________ hurdat_atl AL021926 28.1000 -62.6000 HU 105 3 5 319
1926211N16314 1926 28 NA NA NOT_NAMED 1926-08-05 09:00:00 TS 28.2999 -62.7926 main 1142 1142 P_____________ AL021926 28.2999 -62.7926 HU 105 3 5 319
1926211N16314 1926 28 NA NA NOT_NAMED 1926-08-05 12:00:00 TS 28.5000 -63.0000 105 hurdat_atl main 1159 1159 O_____________ hurdat_atl AL021926 28.5000 -63.0000 HU 105 3 6 316
1926211N16314 1926 28 NA NA NOT_NAMED 1926-08-05 15:00:00 TS 28.6999 -63.2351 main 1176 1174 P_____________ AL021926 28.6999 -63.2351 HU 105 3 6 312
1926211N16314 1926 28 NA NA NOT_NAMED 1926-08-05 18:00:00 TS 28.9000 -63.5000 105 hurdat_atl main 1192 1190 O_____________ hurdat_atl AL021926 28.9000 -63.5000 HU 105 3 6 309
1926211N16314 1926 28 NA NA NOT_NAMED 1926-08-05 21:00:00 TS 29.0924 -63.7852 main 1209 1208 P_____________ AL021926 29.0924 -63.7852 HU 105 3 7 307
1926211N16314 1926 28 NA NA NOT_NAMED 1926-08-06 00:00:00 TS 29.3000 -64.1000 105 hurdat_atl main 1227 1226 O_____________ hurdat_atl AL021926 29.3000 -64.1000 HU 105 3 7 307
1926211N16314 1926 28 NA NA NOT_NAMED 1926-08-06 03:00:00 TS 29.5275 -64.4427 main 1242 1200 P_____________ AL021926 29.5275 -64.4427 HU 102 3 8 309
1926211N16314 1926 28 NA NA NOT_NAMED 1926-08-06 06:00:00 TS 29.8000 -64.8000 100 hurdat_atl main 1200 1157 O_____________ hurdat_atl AL021926 29.8000 -64.8000 HU 100 3 8 312
1926211N16314 1926 28 NA NA NOT_NAMED 1926-08-06 09:00:00 TS 30.0975 -65.1653 main 1149 1100 P_____________ AL021926 30.0975 -65.1653 HU 97 3 9 319
1926211N16314 1926 28 NA NA NOT_NAMED 1926-08-06 12:00:00 TS 30.5000 -65.5000 95 hurdat_atl main 1100 1045 O_____________ hurdat_atl AL021926 30.5000 -65.5000 HU 95 2 11 329
1926211N16314 1926 28 NA NA NOT_NAMED 1926-08-06 15:00:00 TS 31.0175 -65.7948 main 1045 987 P_____________ AL021926 31.0175 -65.7948 HU 95 2 13 340
1926211N16314 1926 28 NA NA NOT_NAMED 1926-08-06 18:00:00 TS 31.7000 -66.0000 95 hurdat_atl main 987 937 O_____________ hurdat_atl AL021926 31.7000 -66.0000 HU 95 2 15 351
1926211N16314 1926 28 NA NA NOT_NAMED 1926-08-06 21:00:00 TS 32.5400 -66.0807 main 937 898 P_____________ AL021926 32.5400 -66.0807 HU 92 2 18 357
1926211N16314 1926 28 NA NA NOT_NAMED 1926-08-07 00:00:00 TS 33.5000 -66.1000 90 hurdat_atl main 895 858 O_____________ hurdat_atl AL021926 33.5000 -66.1000 HU 90 2 19 358
1926211N16314 1926 28 NA NA NOT_NAMED 1926-08-07 03:00:00 TS 34.4700 -66.1573 main 855 774 P_____________ AL021926 34.4700 -66.1573 HU 90 2 20 358
1926211N16314 1926 28 NA NA NOT_NAMED 1926-08-07 06:00:00 TS 35.5000 -66.2000 90 hurdat_atl main 764 660 O_____________ hurdat_atl AL021926 35.5000 -66.2000 HU 90 2 21 358
1926211N16314 1926 28 NA NA NOT_NAMED 1926-08-07 09:00:00 TS 36.6074 -66.2510 main 650 559 P_____________ AL021926 36.6074 -66.2510 HU 87 2 22 0
1926211N16314 1926 28 NA NA NOT_NAMED 1926-08-07 12:00:00 TS 37.7000 -66.2000 85 hurdat_atl main 550 483 O_____________ hurdat_atl AL021926 37.7000 -66.2000 HU 85 2 21 6
1926211N16314 1926 28 NA NA NOT_NAMED 1926-08-07 15:00:00 TS 38.6647 -65.9817 main 475 443 P_____________ AL021926 38.6647 -65.9817 HU 85 2 20 14
1926211N16314 1926 28 NA NA NOT_NAMED 1926-08-07 18:00:00 TS 39.6000 -65.6000 85 hurdat_atl main 433 333 O_____________ hurdat_atl AL021926 39.6000 -65.6000 HU 85 2 20 19
1926211N16314 1926 28 NA NA NOT_NAMED 1926-08-07 21:00:00 TS 40.5921 -65.1233 main 322 229 P_____________ AL021926 40.5921 -65.1233 HU 82 1 22 23
1926211N16314 1926 28 NA NA NOT_NAMED 1926-08-08 00:00:00 TS 41.6000 -64.5000 80 hurdat_atl main 221 164 O_____________ hurdat_atl AL021926 41.6000 -64.5000 HU 80 1 22 27
1926211N16314 1926 28 NA NA NOT_NAMED 1926-08-08 03:00:00 TS 42.5847 -63.7573 main 155 110 P_____________ AL021926 42.5847 -63.7573 HU 75 1 23 31
1926211N16314 1926 28 NA NA NOT_NAMED 1926-08-08 06:00:00 ET 43.6000 -62.9000 70 hurdat_atl main 104 38 O_____________ hurdat_atl AL021926 43.6000 -62.9000 EX 70 -4 25 32
1926211N16314 1926 28 NA NA NOT_NAMED 1926-08-08 09:00:00 ET 44.6846 -61.9778 main 33 0 P_____________ AL021926 44.6846 -61.9778 EX 67 -4 26 32
1926211N16314 1926 28 NA NA NOT_NAMED 1926-08-08 12:00:00 ET 45.8000 -61.0000 65 hurdat_atl main 0 0 O_____________ hurdat_atl AL021926 45.8000 -61.0000 EX 65 -4 26 32
1926211N16314 1926 28 NA NA NOT_NAMED 1926-08-08 15:00:00 ET 46.9065 -60.0101 main 25 0 P_____________ AL021926 46.9065 -60.0101 EX 60 -4 26 32
1926211N16314 1926 28 NA NA NOT_NAMED 1926-08-08 18:00:00 ET 48.0000 -59.0000 55 hurdat_atl main 0 O_____________ hurdat_atl AL021926 48.0000 -59.0000 EX 55 -4 26 32

About IBTrACS Database

This database is a web-friendly format of International Best Track Archive for Climate Stewardship (IBTrACS), a global best track data archive curated by NOAA dating back to 1842.

Updated: 2021-11-26